createdAt,value
2022-09-03T00:00:17.265Z,1001.12
2022-09-03T00:02:13.588Z,1001.09
2022-09-03T00:03:14.565Z,1001.08
2022-09-03T00:04:14.554Z,1001.08
2022-09-03T00:05:14.581Z,1001.07
2022-09-03T00:06:14.539Z,1001.06
2022-09-03T00:07:14.527Z,1001.07
2022-09-03T00:08:14.539Z,1001.07
2022-09-03T00:09:14.502Z,1001.06
2022-09-03T00:10:14.683Z,1001.04
2022-09-03T00:11:14.516Z,1001.02
2022-09-03T00:12:14.474Z,1001.01
2022-09-03T00:13:14.475Z,1000.99
2022-09-03T00:14:14.452Z,1000.99
2022-09-03T00:15:14.441Z,1000.98
2022-09-03T00:16:14.453Z,1000.97
2022-09-03T00:17:14.454Z,1000.95
2022-09-03T00:18:14.404Z,1000.94
2022-09-03T00:19:14.401Z,1000.94
2022-09-03T00:20:14.381Z,1000.95
2022-09-03T00:21:14.372Z,1000.96
2022-09-03T00:22:14.368Z,1000.96
2022-09-03T00:23:14.373Z,1000.97
2022-09-03T00:24:15.210Z,1000.98
2022-09-03T00:25:14.351Z,1000.98
2022-09-03T00:26:14.322Z,1000.97
2022-09-03T00:27:14.310Z,1000.95
2022-09-03T00:28:14.301Z,1000.95
2022-09-03T00:29:14.294Z,1000.95
2022-09-03T00:30:16.550Z,1000.95
2022-09-03T00:31:14.371Z,1000.94
2022-09-03T00:32:14.261Z,1000.95
2022-09-03T00:33:14.256Z,1000.95
2022-09-03T00:34:14.230Z,1000.94
2022-09-03T00:35:14.252Z,1000.93
2022-09-03T00:36:14.220Z,1000.93
2022-09-03T00:37:15.612Z,1000.93
2022-09-03T00:38:14.190Z,1000.92
2022-09-03T00:39:14.183Z,1000.92
2022-09-03T00:40:14.188Z,1000.93
2022-09-03T00:41:14.169Z,1000.94
2022-09-03T00:42:14.256Z,1000.95
2022-09-03T00:43:14.139Z,1000.95
2022-09-03T00:44:14.123Z,1000.96
2022-09-03T00:45:14.117Z,1000.97
2022-09-03T00:46:14.154Z,1000.97
2022-09-03T00:47:14.108Z,1000.95
2022-09-03T00:48:14.108Z,1000.95
2022-09-03T00:49:14.109Z,1000.96
2022-09-03T00:50:14.065Z,1000.97
2022-09-03T00:51:14.055Z,1001.00
2022-09-03T00:52:14.058Z,1001.00
2022-09-03T00:53:14.029Z,1001.03
2022-09-03T00:54:14.026Z,1001.04
2022-09-03T00:55:14.011Z,1001.02
2022-09-03T00:56:13.991Z,1001.02
2022-09-03T00:57:14.019Z,1001.01
2022-09-03T00:58:13.979Z,1001.00
2022-09-03T00:59:13.969Z,1000.98
2022-09-03T01:00:13.955Z,1000.95
2022-09-03T01:01:14.092Z,1000.93
2022-09-03T01:02:14.292Z,1000.92
2022-09-03T01:03:13.947Z,1000.91
2022-09-03T01:04:13.911Z,1000.92
2022-09-03T01:05:13.900Z,1000.92
2022-09-03T01:06:13.903Z,1000.94
2022-09-03T01:07:13.883Z,1000.95
2022-09-03T01:08:13.897Z,1000.96
2022-09-03T01:09:13.854Z,1000.96
2022-09-03T05:01:40.193Z,1000.67
2022-09-03T05:02:47.204Z,1000.65
2022-09-03T05:03:41.157Z,1000.68
2022-09-03T05:04:41.154Z,1000.68
2022-09-03T05:05:41.136Z,1000.68
2022-09-03T05:06:41.125Z,1000.69
2022-09-03T05:07:41.119Z,1000.68
2022-09-03T05:08:41.119Z,1000.70
2022-09-03T05:09:41.116Z,1000.69
2022-09-03T05:10:41.081Z,1000.70
2022-09-03T05:11:41.079Z,1000.72
2022-09-03T05:12:41.089Z,1000.71
2022-09-03T05:13:41.062Z,1000.70
2022-09-03T05:14:47.078Z,1000.70
2022-09-03T05:15:41.030Z,1000.67
2022-09-03T05:16:41.107Z,1000.66
2022-09-03T05:17:41.015Z,1000.64
2022-09-03T05:18:41.002Z,1000.67
2022-09-03T05:19:41.036Z,1000.66
2022-09-03T05:20:40.981Z,1000.68
2022-09-03T05:21:40.968Z,1000.69
2022-09-03T05:22:40.953Z,1000.72
2022-09-03T05:23:40.952Z,1000.72
2022-09-03T05:24:40.945Z,1000.76
2022-09-03T05:25:40.946Z,1000.77
2022-09-03T05:26:40.917Z,1000.76
2022-09-03T05:27:40.906Z,1000.79
2022-09-03T05:28:40.893Z,1000.80
2022-09-03T05:29:40.898Z,1000.80
2022-09-03T05:30:40.866Z,1000.80
2022-09-03T05:31:40.916Z,1000.79
2022-09-03T05:32:40.844Z,1000.78
2022-09-03T05:33:40.844Z,1000.78
2022-09-03T05:34:40.827Z,1000.77
2022-09-03T05:35:40.840Z,1000.76
2022-09-03T05:36:40.824Z,1000.79
2022-09-03T05:37:40.807Z,1000.82
2022-09-03T05:38:40.787Z,1000.83
2022-09-03T05:39:40.844Z,1000.88
2022-09-03T05:40:40.775Z,1000.88
2022-09-03T05:41:40.776Z,1000.91
2022-09-03T05:42:40.756Z,1000.92
2022-09-03T05:43:40.734Z,1000.94
2022-09-03T05:44:40.730Z,1000.96
2022-09-03T05:45:40.763Z,1000.97
2022-09-03T05:46:40.712Z,1000.97
2022-09-03T05:47:40.712Z,1000.98
2022-09-03T05:48:40.679Z,1000.97
2022-09-03T05:49:40.677Z,1000.98
2022-09-03T05:50:40.654Z,1000.98
2022-09-03T05:51:40.648Z,1000.99
2022-09-03T05:52:40.649Z,1000.99
2022-09-03T05:53:40.647Z,1001.00
2022-09-03T05:54:40.613Z,1001.01
2022-09-03T05:55:40.602Z,1001.01
2022-09-03T05:56:40.599Z,1000.99
2022-09-03T05:57:40.587Z,1000.98
2022-09-03T05:58:40.596Z,1000.97
2022-09-03T05:59:40.561Z,1000.96
2022-09-03T06:00:40.561Z,1000.97
2022-09-03T06:01:40.576Z,1000.97
2022-09-03T06:02:40.676Z,1001.01
2022-09-03T06:03:40.721Z,1001.02
2022-09-03T06:04:40.556Z,1000.99
2022-09-03T06:05:40.498Z,1001.05
2022-09-03T06:06:40.497Z,1001.05
2022-09-03T06:07:40.491Z,1001.07
2022-09-03T06:08:40.473Z,1001.08
2022-09-03T06:09:40.473Z,1001.07
2022-09-03T06:10:41.251Z,1001.09
2022-09-03T06:11:40.455Z,1001.09
2022-09-03T06:12:40.423Z,1001.09
2022-09-03T06:13:40.406Z,1001.11
2022-09-03T06:14:40.394Z,1001.10
2022-09-03T06:15:40.405Z,1001.13
2022-09-03T06:16:40.432Z,1001.14
2022-09-03T06:17:40.367Z,1001.16
2022-09-03T06:18:40.359Z,1001.19
2022-09-03T06:19:40.347Z,1001.20
2022-09-03T06:20:40.337Z,1001.21
2022-09-03T06:21:40.339Z,1001.22
2022-09-03T06:22:40.362Z,1001.22
2022-09-03T06:23:41.058Z,1001.25
2022-09-03T06:24:40.305Z,1001.24
2022-09-03T06:25:40.285Z,1001.24
2022-09-03T06:26:40.273Z,1001.23
2022-09-03T06:27:40.290Z,1001.23
2022-09-03T06:28:40.260Z,1001.23
2022-09-03T06:29:40.265Z,1001.22
2022-09-03T06:30:40.265Z,1001.20
2022-09-03T06:31:40.384Z,1001.19
2022-09-03T06:32:40.230Z,1001.20
2022-09-03T06:33:40.210Z,1001.20
2022-09-03T06:34:40.193Z,1001.21
2022-09-03T06:35:43.183Z,1001.21
2022-09-03T06:36:40.171Z,1001.23
2022-09-03T06:37:40.154Z,1001.25
2022-09-03T06:38:40.181Z,1001.25
2022-09-03T06:39:40.239Z,1001.25
2022-09-03T06:40:40.131Z,1001.26
2022-09-03T06:41:40.232Z,1001.25
2022-09-03T06:42:40.095Z,1001.26
2022-09-03T06:43:40.117Z,1001.26
2022-09-03T06:44:40.077Z,1001.26
2022-09-03T06:45:40.201Z,1001.26
2022-09-03T06:46:40.060Z,1001.27
2022-09-03T06:47:40.049Z,1001.28
2022-09-03T06:48:40.068Z,1001.29
2022-09-03T06:49:40.053Z,1001.29
2022-09-03T06:50:40.015Z,1001.31
2022-09-03T06:51:40.014Z,1001.27
2022-09-03T06:52:39.987Z,1001.29
2022-09-03T06:53:39.984Z,1001.30
2022-09-03T06:54:39.991Z,1001.31
2022-09-03T06:55:39.998Z,1001.32
2022-09-03T06:56:40.955Z,1001.32
2022-09-03T06:57:39.952Z,1001.31
2022-09-03T06:58:39.953Z,1001.29
2022-09-03T06:59:39.945Z,1001.25
2022-09-03T07:00:40.015Z,1001.25
2022-09-03T07:01:40.150Z,1001.26
2022-09-03T07:02:44.692Z,1001.25
2022-09-03T07:03:39.974Z,1001.29
2022-09-03T07:04:39.863Z,1001.29
2022-09-03T07:05:39.867Z,1001.32
2022-09-03T07:06:39.861Z,1001.32
2022-09-03T07:07:39.863Z,1001.31
2022-09-03T07:08:39.821Z,1001.34
2022-09-03T07:09:39.837Z,1001.34
2022-09-03T07:10:39.812Z,1001.38
2022-09-03T07:11:39.800Z,1001.35
2022-09-03T07:12:39.825Z,1001.38
2022-09-03T07:13:39.777Z,1001.40
2022-09-03T07:14:39.754Z,1001.37
2022-09-03T07:15:39.751Z,1001.39
2022-09-03T07:16:39.857Z,1001.40
2022-09-03T07:17:39.727Z,1001.42
2022-09-03T07:18:39.729Z,1001.41
2022-09-03T07:19:39.748Z,1001.43
2022-09-03T07:20:39.743Z,1001.40
2022-09-03T07:21:39.698Z,1001.39
2022-09-03T07:22:39.685Z,1001.41
2022-09-03T07:23:39.671Z,1001.40
2022-09-03T07:24:39.666Z,1001.40
2022-09-03T07:25:39.667Z,1001.42
2022-09-03T07:26:39.629Z,1001.43
2022-09-03T07:27:39.646Z,1001.43
2022-09-03T07:28:39.624Z,1001.45
2022-09-03T07:29:39.603Z,1001.43
2022-09-03T07:30:39.610Z,1001.45
2022-09-03T07:31:39.658Z,1001.44
2022-09-03T07:32:39.584Z,1001.45
2022-09-03T07:33:39.562Z,1001.47
2022-09-03T07:34:39.547Z,1001.47
2022-09-03T07:35:39.536Z,1001.46
2022-09-03T07:36:39.558Z,1001.42
2022-09-03T07:37:39.527Z,1001.47
2022-09-03T07:38:39.632Z,1001.46
2022-09-03T07:39:39.548Z,1001.50
2022-09-03T07:40:39.485Z,1001.49
2022-09-03T07:41:39.512Z,1001.51
2022-09-03T07:42:39.478Z,1001.47
2022-09-03T07:43:39.450Z,1001.49
2022-09-03T07:44:39.452Z,1001.49
2022-09-03T07:45:39.447Z,1001.49
2022-09-03T07:46:39.676Z,1001.49
2022-09-03T07:47:39.459Z,1001.51
2022-09-03T07:48:39.396Z,1001.52
2022-09-03T07:49:39.385Z,1001.53
2022-09-03T07:50:39.383Z,1001.51
2022-09-03T07:51:39.367Z,1001.52
2022-09-03T07:52:39.382Z,1001.52
2022-09-03T07:53:39.350Z,1001.51
2022-09-03T07:54:39.338Z,1001.52
2022-09-03T07:55:39.323Z,1001.53
2022-09-03T07:56:39.331Z,1001.53
2022-09-03T07:57:39.303Z,1001.54
2022-09-03T07:58:39.305Z,1001.55
2022-09-03T07:59:39.284Z,1001.54
2022-09-03T08:00:39.346Z,1001.56
2022-09-03T08:01:41.435Z,1001.57
2022-09-03T08:02:41.994Z,1001.55
2022-09-03T08:03:39.282Z,1001.60
2022-09-03T08:04:39.233Z,1001.60
2022-09-03T08:05:39.209Z,1001.63
2022-09-03T08:06:39.211Z,1001.63
2022-09-03T08:07:39.223Z,1001.65
2022-09-03T08:08:39.180Z,1001.65
2022-09-03T08:09:39.217Z,1001.66
2022-09-03T08:10:39.161Z,1001.71
2022-09-03T08:11:39.172Z,1001.70
2022-09-03T08:12:39.140Z,1001.71
2022-09-03T08:13:39.160Z,1001.73
2022-09-03T08:14:39.141Z,1001.73
2022-09-03T08:15:39.127Z,1001.73
2022-09-03T08:16:39.167Z,1001.72
2022-09-03T08:17:39.086Z,1001.72
2022-09-03T08:18:39.075Z,1001.74
2022-09-03T08:19:39.088Z,1001.71
2022-09-03T08:20:39.064Z,1001.69
2022-09-03T08:21:39.047Z,1001.68
2022-09-03T08:22:39.031Z,1001.67
2022-09-03T08:23:39.020Z,1001.68
2022-09-03T08:24:39.052Z,1001.67
2022-09-03T08:25:39.046Z,1001.66
2022-09-03T08:26:38.999Z,1001.65
2022-09-03T08:27:38.983Z,1001.67
2022-09-03T08:28:38.976Z,1001.68
2022-09-03T08:29:38.956Z,1001.69
2022-09-03T08:30:38.956Z,1001.69
2022-09-03T08:31:39.065Z,1001.69
2022-09-03T08:32:38.930Z,1001.70
2022-09-03T08:33:38.926Z,1001.69
2022-09-03T08:34:38.916Z,1001.67
2022-09-03T08:35:38.893Z,1001.64
2022-09-03T08:36:39.438Z,1001.64
2022-09-03T08:37:38.877Z,1001.61
2022-09-03T08:38:39.096Z,1001.60
2022-09-03T08:39:38.922Z,1001.59
2022-09-03T08:40:38.875Z,1001.58
2022-09-03T08:41:38.832Z,1001.59
2022-09-03T08:42:38.824Z,1001.57
2022-09-03T08:43:38.820Z,1001.57
2022-09-03T08:44:38.807Z,1001.60
2022-09-03T08:45:38.789Z,1001.60
2022-09-03T08:46:39.052Z,1001.61
2022-09-03T08:47:38.773Z,1001.63
2022-09-03T08:48:38.759Z,1001.65
2022-09-03T08:49:38.801Z,1001.67
2022-09-03T08:50:38.750Z,1001.68
2022-09-03T08:51:38.729Z,1001.71
2022-09-03T08:52:38.719Z,1001.73
2022-09-03T08:53:38.696Z,1001.74
2022-09-03T08:54:38.700Z,1001.75
2022-09-03T08:55:38.739Z,1001.76
2022-09-03T08:56:38.689Z,1001.78
2022-09-03T08:57:38.659Z,1001.78
2022-09-03T08:58:38.669Z,1001.81
2022-09-03T08:59:38.635Z,1001.83
2022-09-03T09:00:38.630Z,1001.85
2022-09-03T09:01:38.745Z,1001.87
2022-09-03T09:02:38.737Z,1001.88
2022-09-03T09:03:38.605Z,1001.86
2022-09-03T09:04:38.594Z,1001.86
2022-09-03T09:05:38.574Z,1001.85
2022-09-03T09:06:38.610Z,1001.87
2022-09-03T09:07:38.553Z,1001.87
2022-09-03T09:08:38.555Z,1001.87
2022-09-03T09:09:38.540Z,1001.86
2022-09-03T09:10:38.577Z,1001.85
2022-09-03T09:11:38.521Z,1001.85
2022-09-03T09:12:45.644Z,1001.84
2022-09-03T09:13:38.488Z,1001.84
2022-09-03T09:14:39.421Z,1001.85
2022-09-03T09:15:38.543Z,1001.85
2022-09-03T09:16:38.457Z,1001.84
2022-09-03T09:17:38.498Z,1001.84
2022-09-03T09:18:38.435Z,1001.86
2022-09-03T09:19:38.443Z,1001.86
2022-09-03T09:20:38.434Z,1001.87
2022-09-03T09:21:38.416Z,1001.85
2022-09-03T09:22:38.393Z,1001.84
2022-09-03T09:23:38.378Z,1001.87
2022-09-03T09:24:38.424Z,1001.89
2022-09-03T09:25:38.369Z,1001.89
2022-09-03T09:26:38.347Z,1001.90
2022-09-03T09:27:38.337Z,1001.93
2022-09-03T09:28:38.326Z,1001.94
2022-09-03T09:29:38.316Z,1001.97
2022-09-03T09:30:38.301Z,1002.00
2022-09-03T09:31:38.361Z,1002.01
2022-09-03T09:32:39.321Z,1001.98
2022-09-03T09:33:38.280Z,1001.95
2022-09-03T09:34:38.270Z,1001.93
2022-09-03T09:35:38.247Z,1001.91
2022-09-03T09:36:38.257Z,1001.92
2022-09-03T09:37:38.283Z,1001.94
2022-09-03T09:38:38.229Z,1001.98
2022-09-03T09:39:38.261Z,1002.00
2022-09-03T09:40:41.493Z,1002.02
2022-09-03T09:41:38.208Z,1002.02
2022-09-03T09:42:38.212Z,1002.02
2022-09-03T09:43:38.190Z,1002.00
2022-09-03T09:44:38.158Z,1001.99
2022-09-03T09:45:38.157Z,1001.98
2022-09-03T09:46:38.328Z,1001.97
2022-09-03T09:47:38.134Z,1001.99
2022-09-03T09:48:38.143Z,1002.02
2022-09-03T09:49:38.164Z,1002.04
2022-09-03T09:50:38.171Z,1002.03
2022-09-03T09:51:38.101Z,1002.03
2022-09-03T09:52:38.070Z,1002.01
2022-09-03T09:53:38.063Z,1001.98
2022-09-03T09:54:38.068Z,1001.97
2022-09-03T09:55:38.034Z,1001.94
2022-09-03T09:56:38.028Z,1001.92
2022-09-03T09:57:38.010Z,1001.93
2022-09-03T09:58:38.052Z,1001.94
2022-09-03T09:59:38.008Z,1001.95
2022-09-03T10:00:38.015Z,1001.96
2022-09-03T10:01:38.046Z,1001.99
2022-09-03T10:02:38.053Z,1002.01
2022-09-03T10:03:37.948Z,1002.02
2022-09-03T10:04:37.935Z,1002.04
2022-09-03T10:05:37.930Z,1002.04
2022-09-03T10:06:37.954Z,1002.04
2022-09-03T10:07:37.904Z,1002.05
2022-09-03T10:08:37.897Z,1002.08
2022-09-03T10:09:37.882Z,1002.08
2022-09-03T10:10:37.939Z,1002.10
2022-09-03T10:11:37.873Z,1002.12
2022-09-03T10:12:37.869Z,1002.11
2022-09-03T10:13:37.839Z,1002.09
2022-09-03T10:14:37.835Z,1002.07
2022-09-03T10:15:37.845Z,1002.00
2022-09-03T10:16:37.813Z,1001.94
2022-09-03T10:17:37.829Z,1001.90
2022-09-03T10:18:37.815Z,1001.89
2022-09-03T10:19:37.775Z,1001.92
2022-09-03T10:20:37.775Z,1001.95
2022-09-03T10:21:37.751Z,1001.98
2022-09-03T10:22:37.749Z,1001.99
2022-09-03T10:23:37.756Z,1001.99
2022-09-03T10:24:37.735Z,1001.98
2022-09-03T10:25:37.708Z,1001.95
2022-09-03T10:26:37.710Z,1001.92
2022-09-03T10:27:37.688Z,1001.92
2022-09-03T10:31:04.362Z,1001.96
2022-09-03T10:32:11.296Z,1001.91
2022-09-03T10:33:05.286Z,1001.89
2022-09-03T10:34:05.285Z,1001.86
2022-09-03T10:35:05.248Z,1001.85
2022-09-03T10:37:21.475Z,1001.84
2022-09-03T10:38:28.471Z,1001.83
2022-09-03T10:39:28.531Z,1001.83
2022-09-03T10:40:22.445Z,1001.85
2022-09-03T10:41:22.470Z,1001.86
2022-09-03T10:42:22.427Z,1001.88
2022-09-03T10:43:22.404Z,1001.89
2022-09-03T10:44:22.409Z,1001.91
2022-09-03T10:45:22.382Z,1001.92
2022-09-03T10:46:24.336Z,1001.94
2022-09-03T10:47:22.375Z,1001.92
2022-09-03T10:48:22.386Z,1001.90
2022-09-03T10:49:22.341Z,1001.85
2022-09-03T10:50:22.352Z,1001.81
2022-09-03T10:51:22.339Z,1001.79
2022-09-03T10:52:22.320Z,1001.78
2022-09-03T10:53:22.300Z,1001.79
2022-09-03T10:54:22.292Z,1001.78
2022-09-03T10:55:22.292Z,1001.79
2022-09-03T10:56:22.267Z,1001.80
2022-09-03T10:57:22.253Z,1001.80
2022-09-03T10:58:22.247Z,1001.81
2022-09-03T10:59:25.099Z,1001.84
2022-09-03T11:00:22.266Z,1001.87
2022-09-03T11:01:22.333Z,1001.87
2022-09-03T11:02:22.268Z,1001.85
2022-09-03T11:03:22.197Z,1001.84
2022-09-03T11:04:22.183Z,1001.80
2022-09-03T11:05:22.190Z,1001.78
2022-09-03T11:06:22.189Z,1001.76
2022-09-03T11:07:22.144Z,1001.76
2022-09-03T11:08:22.187Z,1001.77
2022-09-03T11:09:22.124Z,1001.77
2022-09-03T11:10:22.129Z,1001.77
2022-09-03T11:11:22.130Z,1001.78
2022-09-03T11:12:22.103Z,1001.78
2022-09-03T11:13:22.083Z,1001.78
2022-09-03T11:14:22.104Z,1001.76
2022-09-03T11:15:28.106Z,1001.74
2022-09-03T11:16:22.105Z,1001.74
2022-09-03T11:17:22.059Z,1001.69
2022-09-03T11:18:22.090Z,1001.70
2022-09-03T11:19:22.017Z,1001.68
2022-09-03T11:20:22.011Z,1001.68
2022-09-03T11:21:22.059Z,1001.67
2022-09-03T11:22:21.992Z,1001.69
2022-09-03T11:23:21.980Z,1001.72
2022-09-03T11:24:21.978Z,1001.72
2022-09-03T11:25:21.967Z,1001.73
2022-09-03T11:26:21.946Z,1001.73
2022-09-03T11:27:21.968Z,1001.73
2022-09-03T11:28:21.940Z,1001.71
2022-09-03T11:29:21.921Z,1001.70
2022-09-03T11:30:21.901Z,1001.68
2022-09-03T11:31:21.992Z,1001.66
2022-09-03T11:32:21.892Z,1001.64
2022-09-03T11:33:21.921Z,1001.60
2022-09-03T11:34:23.580Z,1001.60
2022-09-03T11:35:21.864Z,1001.58
2022-09-03T11:36:21.845Z,1001.56
2022-09-03T11:37:21.840Z,1001.56
2022-09-03T11:38:21.827Z,1001.56
2022-09-03T11:39:21.942Z,1001.55
2022-09-03T11:40:21.799Z,1001.57
2022-09-03T11:41:21.784Z,1001.56
2022-09-03T11:42:21.779Z,1001.55
2022-09-03T11:43:21.775Z,1001.54
2022-09-03T11:44:21.764Z,1001.51
2022-09-03T11:45:21.768Z,1001.50
2022-09-03T11:46:22.075Z,1001.48
2022-09-03T11:47:21.735Z,1001.46
2022-09-03T11:48:21.708Z,1001.45
2022-09-03T11:49:21.712Z,1001.44
2022-09-03T11:50:21.786Z,1001.44
2022-09-03T11:51:21.704Z,1001.43
2022-09-03T11:52:21.672Z,1001.42
2022-09-03T11:53:21.652Z,1001.40
2022-09-03T11:54:21.646Z,1001.40
2022-09-03T11:55:21.644Z,1001.37
2022-09-03T11:56:21.651Z,1001.36
2022-09-03T11:57:21.612Z,1001.37
2022-09-03T11:58:21.621Z,1001.38
2022-09-03T11:59:21.597Z,1001.38
2022-09-03T12:00:21.589Z,1001.36
2022-09-03T12:01:21.579Z,1001.36
2022-09-03T12:02:21.618Z,1001.36
2022-09-03T12:03:21.551Z,1001.35
2022-09-03T12:04:21.575Z,1001.34
2022-09-03T12:05:21.527Z,1001.35
2022-09-03T12:06:21.523Z,1001.34
2022-09-03T12:07:21.537Z,1001.34
2022-09-03T12:08:21.530Z,1001.34
2022-09-03T12:09:21.492Z,1001.30
2022-09-03T12:10:21.485Z,1001.27
2022-09-03T12:11:21.467Z,1001.23
2022-09-03T12:12:21.454Z,1001.23
2022-09-03T12:13:21.461Z,1001.23
2022-09-03T12:14:21.467Z,1001.22
2022-09-03T12:15:21.423Z,1001.23
2022-09-03T12:16:21.478Z,1001.19
2022-09-03T12:17:21.414Z,1001.20
2022-09-03T12:18:21.428Z,1001.19
2022-09-03T12:19:21.384Z,1001.16
2022-09-03T12:20:21.374Z,1001.16
2022-09-03T12:21:21.359Z,1001.15
2022-09-03T12:22:21.359Z,1001.15
2022-09-03T12:23:21.344Z,1001.13
2022-09-03T12:24:21.349Z,1001.11
2022-09-03T12:25:21.322Z,1001.13
2022-09-03T12:26:21.323Z,1001.09
2022-09-03T12:27:21.297Z,1001.09
2022-09-03T12:28:21.304Z,1001.05
2022-09-03T12:29:21.285Z,1001.11
2022-09-03T12:30:21.269Z,1001.11
2022-09-03T12:31:21.352Z,1001.11
2022-09-03T12:32:21.246Z,1001.10
2022-09-03T12:33:21.232Z,1001.11
2022-09-03T12:34:21.244Z,1001.11
2022-09-03T12:36:21.214Z,1001.09
2022-09-03T12:38:04.137Z,1001.09
2022-09-03T12:38:21.189Z,1001.07
2022-09-03T12:40:05.136Z,1001.07
2022-09-03T12:40:21.240Z,1001.02
2022-09-03T12:41:26.564Z,1001.01
2022-09-03T12:42:21.152Z,1001.01
2022-09-03T12:44:21.147Z,1001.01
2022-09-03T12:45:21.102Z,1001.01
2022-09-03T12:46:21.145Z,1001.02
2022-09-03T12:47:37.803Z,1001.01
2022-09-03T12:48:21.082Z,1001.03
2022-09-03T12:49:36.479Z,1001.02
2022-09-03T12:50:21.079Z,1000.99
2022-09-03T12:52:21.049Z,1000.97
2022-09-03T12:53:21.033Z,1000.98
2022-09-03T12:54:21.049Z,1001.00
2022-09-03T12:55:21.018Z,1001.00
2022-09-03T12:56:20.990Z,1001.00
2022-09-03T12:57:20.978Z,1001.00
2022-09-03T12:58:20.982Z,1001.01
2022-09-03T12:59:20.961Z,1001.00
2022-09-03T13:00:20.953Z,1001.00
2022-09-03T13:01:21.036Z,1000.98
2022-09-03T13:02:21.093Z,1000.97
2022-09-03T13:03:20.975Z,1000.96
2022-09-03T13:04:20.914Z,1000.97
2022-09-03T13:05:20.920Z,1000.96
2022-09-03T13:06:20.890Z,1000.98
2022-09-03T13:07:20.874Z,1000.98
2022-09-03T13:08:20.868Z,1000.98
2022-09-03T13:09:20.852Z,1000.99
2022-09-03T13:10:20.849Z,1001.00
2022-09-03T13:11:20.859Z,1001.01
2022-09-03T13:12:20.822Z,1001.00
2022-09-03T13:13:20.812Z,1001.00
2022-09-03T13:14:20.813Z,1001.02
2022-09-03T13:15:20.787Z,1001.04
2022-09-03T13:16:20.879Z,1001.04
2022-09-03T13:17:20.811Z,1001.06
2022-09-03T13:18:20.762Z,1001.07
2022-09-03T13:19:20.750Z,1001.05
2022-09-03T13:20:20.748Z,1001.04
2022-09-03T13:21:20.741Z,1001.03
2022-09-03T13:22:20.723Z,1001.03
2022-09-03T13:23:20.715Z,1001.03
2022-09-03T13:24:20.698Z,1001.02
2022-09-03T13:25:20.699Z,1001.02
2022-09-03T13:26:20.789Z,1001.00
2022-09-03T13:27:20.676Z,1001.01
2022-09-03T13:28:20.660Z,1001.00
2022-09-03T13:29:20.644Z,1001.01
2022-09-03T13:30:20.640Z,1001.00
2022-09-03T13:31:20.698Z,1000.99
2022-09-03T13:32:20.648Z,1001.00
2022-09-03T13:33:20.598Z,1000.99
2022-09-03T13:34:20.595Z,1000.99
2022-09-03T13:35:20.603Z,1000.99
2022-09-03T13:36:20.580Z,1001.00
2022-09-03T13:37:20.558Z,1001.00
2022-09-03T13:38:20.556Z,1000.99
2022-09-03T13:39:20.575Z,1000.99
2022-09-03T13:40:20.554Z,1001.01
2022-09-03T13:41:20.538Z,1001.00
2022-09-03T13:42:20.506Z,1001.00
2022-09-03T13:43:20.560Z,1001.01
2022-09-03T13:44:20.491Z,1001.02
2022-09-03T13:45:20.487Z,1001.02
2022-09-03T13:46:20.531Z,1001.01
2022-09-03T13:47:20.476Z,1001.01
2022-09-03T13:48:20.444Z,1000.99
2022-09-03T13:49:20.432Z,1000.99
2022-09-03T13:50:20.427Z,1000.98
2022-09-03T13:51:20.418Z,1000.99
2022-09-03T13:52:20.427Z,1001.00
2022-09-03T13:53:20.429Z,1001.01
2022-09-03T13:54:42.546Z,1001.01
2022-09-03T13:55:20.387Z,1001.02
2022-09-03T13:56:20.356Z,1001.03
2022-09-03T13:57:20.348Z,1001.04
2022-09-03T13:58:20.381Z,1001.03
2022-09-03T13:59:20.387Z,1001.02
2022-09-03T14:00:20.329Z,1001.02
2022-09-03T14:01:20.536Z,1001.02
2022-09-03T14:02:20.350Z,1000.99
2022-09-03T14:03:20.334Z,1000.99
2022-09-03T14:04:20.290Z,1001.00
2022-09-03T14:05:20.269Z,1000.99
2022-09-03T14:06:20.275Z,1000.97
2022-09-03T14:07:20.245Z,1000.97
2022-09-03T14:08:20.231Z,1000.97
2022-09-03T14:09:20.226Z,1000.97
2022-09-03T14:10:20.211Z,1000.95
2022-09-03T14:11:20.202Z,1000.95
2022-09-03T14:12:20.227Z,1000.91
2022-09-03T14:13:20.186Z,1000.93
2022-09-03T14:14:20.167Z,1000.93
2022-09-03T14:15:20.164Z,1000.91
2022-09-03T14:16:20.186Z,1000.92
2022-09-03T14:17:20.138Z,1000.90
2022-09-03T14:18:20.128Z,1000.90
2022-09-03T14:19:20.117Z,1000.90
2022-09-03T14:20:20.106Z,1000.89
2022-09-03T14:21:20.101Z,1000.89
2022-09-03T14:22:20.111Z,1000.87
2022-09-03T14:23:20.131Z,1000.86
2022-09-03T14:24:20.063Z,1000.85
2022-09-03T14:25:20.058Z,1000.83
2022-09-03T14:26:30.957Z,1000.80
2022-09-03T14:27:20.054Z,1000.79
2022-09-03T14:28:20.032Z,1000.79
2022-09-03T14:29:20.010Z,1000.79
2022-09-03T14:30:20.009Z,1000.79
2022-09-03T14:31:20.055Z,1000.79
2022-09-03T14:32:19.985Z,1000.80
2022-09-03T14:33:20.121Z,1000.82
2022-09-03T14:34:19.962Z,1000.81
2022-09-03T14:35:19.961Z,1000.84
2022-09-03T14:36:19.945Z,1000.85
2022-09-03T14:37:19.932Z,1000.88
2022-09-03T14:38:25.187Z,1000.88
2022-09-03T14:39:19.972Z,1000.88
2022-09-03T14:40:19.899Z,1000.89
2022-09-03T14:41:19.899Z,1000.89
2022-09-03T14:42:19.870Z,1000.90
2022-09-03T14:43:19.955Z,1000.90
2022-09-03T14:44:19.864Z,1000.91
2022-09-03T14:45:19.847Z,1000.93
2022-09-03T14:46:19.934Z,1000.93
2022-09-03T14:47:19.824Z,1000.92
2022-09-03T14:48:19.827Z,1000.93
2022-09-03T14:49:19.809Z,1000.91
2022-09-03T14:50:19.790Z,1000.90
2022-09-03T14:51:20.100Z,1000.89
2022-09-03T14:52:19.781Z,1000.90
2022-09-03T14:53:19.799Z,1000.89
2022-09-03T14:54:19.764Z,1000.90
2022-09-03T14:55:19.778Z,1000.90
2022-09-03T14:56:19.729Z,1000.92
2022-09-03T14:57:19.718Z,1000.91
2022-09-03T14:58:19.703Z,1000.91
2022-09-03T14:59:20.016Z,1000.92
2022-09-03T15:00:20.104Z,1000.94
2022-09-03T15:01:19.749Z,1000.92
2022-09-03T15:02:19.713Z,1000.92
2022-09-03T15:03:19.678Z,1000.86
2022-09-03T15:04:19.645Z,1000.87
2022-09-03T15:05:19.636Z,1000.86
2022-09-03T15:06:19.623Z,1000.84
2022-09-03T15:07:19.654Z,1000.82
2022-09-03T15:08:19.603Z,1000.82
2022-09-03T15:09:19.600Z,1000.80
2022-09-03T15:10:19.585Z,1000.79
2022-09-03T15:11:19.600Z,1000.80
2022-09-03T15:12:19.568Z,1000.82
2022-09-03T15:13:19.578Z,1000.81
2022-09-03T15:14:19.539Z,1000.78
2022-09-03T15:15:19.531Z,1000.75
2022-09-03T15:16:19.600Z,1000.75
2022-09-03T15:17:19.551Z,1000.72
2022-09-03T15:18:19.499Z,1000.76
2022-09-03T15:19:19.491Z,1000.73
2022-09-03T15:20:19.488Z,1000.69
2022-09-03T15:21:19.472Z,1000.70
2022-09-03T15:22:19.456Z,1000.66
2022-09-03T15:23:19.481Z,1000.69
2022-09-03T15:24:19.438Z,1000.65
2022-09-03T15:25:19.429Z,1000.63
2022-09-03T15:26:19.416Z,1000.61
2022-09-03T15:27:19.409Z,1000.64
2022-09-03T15:28:19.389Z,1000.65
2022-09-03T15:29:19.404Z,1000.62
2022-09-03T15:30:19.364Z,1000.60
2022-09-03T15:31:19.387Z,1000.60
2022-09-03T15:32:19.349Z,1000.58
2022-09-03T15:33:19.345Z,1000.58
2022-09-03T15:34:19.341Z,1000.57
2022-09-03T15:35:19.354Z,1000.56
2022-09-03T15:36:19.308Z,1000.56
2022-09-03T15:37:19.302Z,1000.57
2022-09-03T15:38:19.294Z,1000.58
2022-09-03T15:39:19.309Z,1000.57
2022-09-03T15:40:19.265Z,1000.55
2022-09-03T15:41:19.290Z,1000.53
2022-09-03T15:42:19.242Z,1000.52
2022-09-03T15:43:19.239Z,1000.53
2022-09-03T15:44:19.912Z,1000.52
2022-09-03T15:45:19.293Z,1000.52
2022-09-03T15:46:19.229Z,1000.52
2022-09-03T15:47:19.199Z,1000.54
2022-09-03T15:48:19.182Z,1000.56
2022-09-03T15:49:19.189Z,1000.59
2022-09-03T15:50:19.166Z,1000.62
2022-09-03T15:51:19.162Z,1000.64
2022-09-03T15:52:19.154Z,1000.68
2022-09-03T15:53:19.198Z,1000.70
2022-09-03T15:54:19.124Z,1000.73
2022-09-03T15:55:19.110Z,1000.75
2022-09-03T15:56:19.101Z,1000.75
2022-09-03T15:57:19.103Z,1000.76
2022-09-03T15:58:19.088Z,1000.79
2022-09-03T15:59:19.121Z,1000.83
2022-09-03T16:00:21.389Z,1000.83
2022-09-03T16:01:19.079Z,1000.84
2022-09-03T16:02:19.041Z,1000.89
2022-09-03T16:03:23.694Z,1000.88
2022-09-03T16:04:19.031Z,1000.90